Ashland, Nebraska
Current Conditions -  °F | °C
As of 5:55 AM on Monday 24 Nov 2014 (Local Time) from KMLE Reporting Station
Overcast Overcast  
Wind Chill: 20°   Ceiling: 2800
Heat Index: 30°   Visibility: 10mi
Dew Point: 19°   Wind: 13mph
Humidity: 64%   Direction: 320°NW
Pressure: 29.61"   Gusts: 20mph
Location:  41.04°N, 96.37°W
Report Text: KMLE 241155Z AUTO 32011G17KT 10SM OVC028 M01/M07 A2961 RMK AO2 T10101070 10007 21011
Loading
Personal Weather Stations






























Interactive Weather Map New forecast layout! Learn more

10-Day Weather Forecast

Advertisements
Track Severe Weather on mobile